createdAt,value
2023-02-06T00:00:01.086Z,124.24
2023-02-06T00:01:01.067Z,124.24
2023-02-06T00:02:01.081Z,124.24
2023-02-06T00:03:01.061Z,124.24
2023-02-06T00:04:01.098Z,124.24
2023-02-06T00:05:01.074Z,124.24
2023-02-06T00:06:01.174Z,124.24
2023-02-06T00:07:01.090Z,124.24
2023-02-06T00:08:01.090Z,124.24
2023-02-06T00:09:01.089Z,124.24
2023-02-06T00:10:01.078Z,124.24
2023-02-06T00:11:01.073Z,124.24
2023-02-06T00:12:01.075Z,124.24
2023-02-06T00:13:01.070Z,124.24
2023-02-06T00:14:01.081Z,124.24
2023-02-06T00:15:01.071Z,124.24
2023-02-06T00:16:01.128Z,124.24
2023-02-06T00:17:01.093Z,124.24
2023-02-06T00:18:01.069Z,124.24
2023-02-06T00:19:01.073Z,124.24
2023-02-06T00:20:01.100Z,124.24
2023-02-06T00:21:01.067Z,124.24
2023-02-06T00:22:01.068Z,124.24
2023-02-06T00:23:01.078Z,124.24
2023-02-06T00:24:01.078Z,124.24
2023-02-06T00:25:01.087Z,124.24
2023-02-06T00:26:01.072Z,124.24
2023-02-06T00:27:01.082Z,124.24
2023-02-06T00:28:01.116Z,124.24
2023-02-06T00:29:01.099Z,124.24
2023-02-06T00:30:01.084Z,124.24
2023-02-06T00:31:01.184Z,124.24
2023-02-06T00:32:01.100Z,124.24
2023-02-06T00:33:01.098Z,124.24
2023-02-06T00:34:01.066Z,124.24
2023-02-06T00:35:01.094Z,124.24
2023-02-06T00:36:01.228Z,124.24
2023-02-06T00:37:01.084Z,124.24
2023-02-06T00:38:01.091Z,124.24
2023-02-06T00:39:01.097Z,124.24
2023-02-06T00:40:01.088Z,124.24
2023-02-06T00:41:01.100Z,124.24
2023-02-06T00:42:01.085Z,124.24
2023-02-06T00:43:01.084Z,124.24
2023-02-06T00:44:01.087Z,124.24
2023-02-06T00:45:01.091Z,124.24
2023-02-06T00:46:01.093Z,124.24
2023-02-06T00:47:01.105Z,124.24
2023-02-06T00:48:01.093Z,124.24
2023-02-06T00:49:01.096Z,124.24
2023-02-06T00:50:01.094Z,124.24
2023-02-06T00:51:01.095Z,124.24
2023-02-06T00:52:01.116Z,124.24
2023-02-06T00:53:01.085Z,124.24
2023-02-06T00:54:01.090Z,124.24
2023-02-06T00:55:01.084Z,124.24
2023-02-06T00:56:01.103Z,124.24
2023-02-06T00:57:01.107Z,124.24
2023-02-06T00:58:01.091Z,124.24
2023-02-06T00:59:01.098Z,124.24
2023-02-06T01:00:01.096Z,124.24
2023-02-06T01:01:01.090Z,124.24
2023-02-06T01:02:01.169Z,124.24
2023-02-06T01:03:01.119Z,124.24
2023-02-06T01:04:01.096Z,124.24
2023-02-06T01:05:01.090Z,124.24
2023-02-06T01:06:01.095Z,124.24
2023-02-06T01:07:01.097Z,124.24
2023-02-06T01:08:02.804Z,124.24
2023-02-06T01:09:01.095Z,124.24
2023-02-06T01:10:01.104Z,124.24
2023-02-06T01:11:01.097Z,124.24
2023-02-06T01:12:01.091Z,124.24
2023-02-06T01:13:01.092Z,124.24
2023-02-06T01:14:01.081Z,124.24
2023-02-06T01:15:01.102Z,124.24
2023-02-06T01:16:01.130Z,124.24
2023-02-06T01:17:01.096Z,124.24
2023-02-06T01:18:01.116Z,124.24
2023-02-06T01:19:01.103Z,124.24
2023-02-06T01:20:01.096Z,124.24
2023-02-06T01:21:01.111Z,124.24
2023-02-06T01:22:01.088Z,124.24
2023-02-06T01:23:01.103Z,124.24
2023-02-06T01:24:01.125Z,124.24
2023-02-06T01:25:01.089Z,124.24
2023-02-06T01:26:01.093Z,124.24
2023-02-06T01:27:01.104Z,124.24
2023-02-06T01:28:01.132Z,124.24
2023-02-06T01:29:01.094Z,124.24
2023-02-06T01:30:01.118Z,124.24
2023-02-06T01:31:01.281Z,124.24
2023-02-06T01:32:01.108Z,124.24
2023-02-06T01:33:01.100Z,124.24
2023-02-06T01:34:01.092Z,124.24
2023-02-06T01:35:01.103Z,124.24
2023-02-06T01:36:01.107Z,124.24
2023-02-06T01:37:01.096Z,124.24
2023-02-06T01:38:01.102Z,124.24
2023-02-06T01:39:01.102Z,124.24
2023-02-06T01:40:01.170Z,124.24
2023-02-06T01:41:01.103Z,124.24
2023-02-06T01:42:01.095Z,124.24
2023-02-06T01:43:01.112Z,124.24
2023-02-06T01:44:01.115Z,124.24
2023-02-06T01:45:01.100Z,124.24
2023-02-06T01:46:01.111Z,124.24
2023-02-06T01:47:01.118Z,124.24
2023-02-06T01:48:01.116Z,124.24
2023-02-06T01:49:01.115Z,124.24
2023-02-06T01:50:01.106Z,124.24
2023-02-06T01:51:01.112Z,124.24
2023-02-06T01:52:01.128Z,124.24
2023-02-06T01:53:01.111Z,124.24
2023-02-06T01:54:01.102Z,124.24
2023-02-06T01:55:01.116Z,124.24
2023-02-06T01:56:01.134Z,124.24
2023-02-06T01:57:01.106Z,124.24
2023-02-06T01:58:01.133Z,124.24
2023-02-06T01:59:01.116Z,124.24
2023-02-06T02:00:01.119Z,124.24
2023-02-06T02:01:01.146Z,124.24
2023-02-06T02:02:01.171Z,124.24
2023-02-06T02:03:01.122Z,124.24
2023-02-06T02:04:01.116Z,124.24
2023-02-06T02:05:01.111Z,124.24
2023-02-06T02:06:01.116Z,124.24
2023-02-06T02:07:01.104Z,124.24
2023-02-06T02:08:01.200Z,124.24
2023-02-06T02:09:01.121Z,124.24
2023-02-06T02:10:01.121Z,124.24
2023-02-06T02:11:01.116Z,124.24
2023-02-06T02:12:01.143Z,124.24
2023-02-06T02:13:01.121Z,124.24
2023-02-06T02:14:01.128Z,124.24
2023-02-06T02:15:01.114Z,124.24
2023-02-06T02:16:01.187Z,104.47
2023-02-06T02:17:01.118Z,104.47
2023-02-06T02:18:01.123Z,97.41
2023-02-06T02:19:01.121Z,97.41
2023-02-06T02:20:01.133Z,97.41
2023-02-06T02:21:01.139Z,97.41
2023-02-06T02:22:01.127Z,97.41
2023-02-06T02:23:01.134Z,97.41
2023-02-06T02:24:01.176Z,97.41
2023-02-06T02:25:01.132Z,97.41
2023-02-06T02:26:01.132Z,97.41
2023-02-06T02:27:01.130Z,97.41
2023-02-06T02:28:01.217Z,97.41
2023-02-06T02:29:01.129Z,97.41
2023-02-06T02:30:01.151Z,97.41
2023-02-06T02:31:01.133Z,97.41
2023-02-06T02:32:01.147Z,97.41
2023-02-06T02:33:01.145Z,97.41
2023-02-06T02:34:01.138Z,97.41
2023-02-06T02:35:01.142Z,97.41
2023-02-06T02:36:01.142Z,97.41
2023-02-06T02:37:01.150Z,97.41
2023-02-06T02:38:01.143Z,97.41
2023-02-06T02:39:01.140Z,97.41
2023-02-06T02:40:01.158Z,97.41
2023-02-06T02:41:01.133Z,97.41
2023-02-06T02:42:01.139Z,97.41
2023-02-06T02:43:01.138Z,97.41
2023-02-06T02:44:01.172Z,97.41
2023-02-06T02:45:01.137Z,97.41
2023-02-06T02:46:01.182Z,97.41
2023-02-06T02:47:01.162Z,97.41
2023-02-06T02:48:01.145Z,97.41
2023-02-06T02:49:01.138Z,97.41
2023-02-06T02:50:01.140Z,97.41
2023-02-06T02:51:01.163Z,97.41
2023-02-06T02:52:01.127Z,97.41
2023-02-06T02:53:01.148Z,97.41
2023-02-06T02:54:01.132Z,97.41
2023-02-06T02:55:01.137Z,97.41
2023-02-06T02:56:01.143Z,97.41
2023-02-06T02:57:01.132Z,97.41
2023-02-06T02:58:01.139Z,97.41
2023-02-06T02:59:01.139Z,97.41
2023-02-06T03:00:01.156Z,97.41
2023-02-06T03:01:01.239Z,97.41
2023-02-06T03:02:01.186Z,97.41
2023-02-06T03:03:01.149Z,97.41
2023-02-06T03:04:01.138Z,97.41
2023-02-06T03:05:01.159Z,97.41
2023-02-06T03:06:01.129Z,97.41
2023-02-06T03:07:01.141Z,97.41
2023-02-06T03:08:01.149Z,97.41
2023-02-06T03:09:01.153Z,97.41
2023-02-06T03:10:01.144Z,97.41
2023-02-06T03:11:01.163Z,97.41
2023-02-06T03:12:01.137Z,97.41
2023-02-06T03:13:01.136Z,97.41
2023-02-06T03:14:01.128Z,97.41
2023-02-06T03:15:01.153Z,97.41
2023-02-06T03:16:01.160Z,97.41
2023-02-06T03:17:01.142Z,97.41
2023-02-06T03:18:01.141Z,97.41
2023-02-06T03:19:01.142Z,97.41
2023-02-06T03:20:01.151Z,97.41
2023-02-06T03:21:01.155Z,97.41
2023-02-06T03:22:01.151Z,97.41
2023-02-06T03:23:01.141Z,97.41
2023-02-06T03:24:01.146Z,97.41
2023-02-06T03:25:01.143Z,97.41
2023-02-06T03:26:01.137Z,97.41
2023-02-06T03:27:01.146Z,97.41
2023-02-06T03:28:01.190Z,97.41
2023-02-06T03:29:01.159Z,97.41
2023-02-06T03:30:01.140Z,97.41
2023-02-06T03:31:01.142Z,97.41
2023-02-06T03:32:01.168Z,97.41
2023-02-06T03:33:01.142Z,97.41
2023-02-06T03:34:01.147Z,97.41
2023-02-06T03:35:01.137Z,97.41
2023-02-06T03:36:01.147Z,97.41
2023-02-06T03:37:01.148Z,97.41
2023-02-06T03:38:01.145Z,97.41
2023-02-06T03:39:01.143Z,97.41
2023-02-06T03:40:01.154Z,97.41
2023-02-06T03:41:01.158Z,97.41
2023-02-06T03:42:01.169Z,97.41
2023-02-06T03:43:01.175Z,97.41
2023-02-06T03:44:01.166Z,97.41
2023-02-06T03:45:01.174Z,97.41
2023-02-06T03:46:01.212Z,97.41
2023-02-06T03:47:01.153Z,97.41
2023-02-06T03:48:01.204Z,97.41
2023-02-06T03:49:01.147Z,97.41
2023-02-06T03:50:01.202Z,97.41
2023-02-06T03:51:01.163Z,97.41
2023-02-06T03:52:01.149Z,97.41
2023-02-06T03:53:01.166Z,97.41
2023-02-06T03:54:01.158Z,97.41
2023-02-06T03:55:01.161Z,97.41
2023-02-06T03:56:01.165Z,97.41
2023-02-06T03:57:01.163Z,97.41
2023-02-06T03:58:01.169Z,97.41
2023-02-06T03:59:01.169Z,97.41
2023-02-06T04:00:01.176Z,97.41
2023-02-06T04:01:01.217Z,97.41
2023-02-06T04:02:01.253Z,97.41
2023-02-06T04:03:01.188Z,97.41
2023-02-06T04:04:01.184Z,97.41
2023-02-06T04:05:01.161Z,97.41
2023-02-06T04:06:01.176Z,97.41
2023-02-06T04:07:01.162Z,97.41
2023-02-06T04:08:01.182Z,97.41
2023-02-06T04:09:01.169Z,97.41
2023-02-06T04:10:01.155Z,97.41
2023-02-06T04:11:01.180Z,97.41
2023-02-06T04:12:01.159Z,97.41
2023-02-06T04:13:01.184Z,97.41
2023-02-06T04:14:01.169Z,97.41
2023-02-06T04:15:01.184Z,97.41
2023-02-06T04:16:01.169Z,97.41
2023-02-06T04:17:01.192Z,97.41
2023-02-06T04:18:01.848Z,97.41
2023-02-06T04:19:01.179Z,97.41
2023-02-06T04:20:01.229Z,97.41
2023-02-06T04:21:01.173Z,97.41
2023-02-06T04:22:01.183Z,97.41
2023-02-06T04:23:01.181Z,97.41
2023-02-06T04:24:01.172Z,97.41
2023-02-06T04:25:01.168Z,97.41
2023-02-06T04:26:01.188Z,97.41
2023-02-06T04:27:01.177Z,97.41
2023-02-06T04:28:01.243Z,97.41
2023-02-06T04:29:01.179Z,97.41
2023-02-06T04:30:01.168Z,97.41
2023-02-06T04:31:01.268Z,97.41
2023-02-06T04:32:01.183Z,97.41
2023-02-06T04:33:01.169Z,97.41
2023-02-06T04:34:01.168Z,97.41
2023-02-06T04:35:01.174Z,97.41
2023-02-06T04:36:01.197Z,97.41
2023-02-06T04:37:01.168Z,97.41
2023-02-06T04:38:01.173Z,97.41
2023-02-06T04:39:01.178Z,97.41
2023-02-06T04:40:01.179Z,97.41
2023-02-06T04:41:01.175Z,97.41
2023-02-06T04:42:01.181Z,97.41
2023-02-06T04:43:01.182Z,97.41
2023-02-06T04:44:01.176Z,97.41
2023-02-06T04:45:01.171Z,97.41
2023-02-06T04:46:01.221Z,97.41
2023-02-06T04:47:01.182Z,97.41
2023-02-06T04:48:01.189Z,97.41
2023-02-06T04:49:01.179Z,97.41
2023-02-06T04:50:01.173Z,97.41
2023-02-06T04:51:01.187Z,97.41
2023-02-06T04:52:01.205Z,97.41
2023-02-06T04:53:01.207Z,97.41
2023-02-06T04:54:01.184Z,97.41
2023-02-06T04:55:01.173Z,97.41
2023-02-06T04:56:01.185Z,97.41
2023-02-06T04:57:01.183Z,97.41
2023-02-06T04:58:01.184Z,97.41
2023-02-06T04:59:01.180Z,125.65
2023-02-06T05:00:01.209Z,125.65
2023-02-06T05:01:01.188Z,125.65
2023-02-06T05:02:01.178Z,125.65
2023-02-06T05:03:01.198Z,125.65
2023-02-06T05:04:01.180Z,125.65
2023-02-06T05:05:01.174Z,125.65
2023-02-06T05:06:01.179Z,125.65
2023-02-06T05:07:01.189Z,125.65
2023-02-06T05:08:01.197Z,125.65
2023-02-06T05:09:01.173Z,125.65
2023-02-06T05:10:01.191Z,125.65
2023-02-06T05:11:01.193Z,125.65
2023-02-06T05:12:01.182Z,125.65
2023-02-06T05:13:01.197Z,125.65
2023-02-06T05:14:01.188Z,125.65
2023-02-06T05:15:01.191Z,125.65
2023-02-06T05:16:01.208Z,125.65
2023-02-06T05:17:01.189Z,125.65
2023-02-06T05:18:01.191Z,125.65
2023-02-06T05:19:01.184Z,125.65
2023-02-06T05:20:01.192Z,125.65
2023-02-06T05:21:01.186Z,125.65
2023-02-06T05:22:01.180Z,125.65
2023-02-06T05:23:01.208Z,125.65
2023-02-06T05:24:01.207Z,125.65
2023-02-06T05:25:01.183Z,125.65
2023-02-06T05:26:01.196Z,125.65
2023-02-06T05:27:01.191Z,125.65
2023-02-06T05:28:01.262Z,125.65
2023-02-06T05:29:01.195Z,125.65
2023-02-06T05:30:01.204Z,125.65
2023-02-06T05:31:01.285Z,125.65
2023-02-06T05:32:01.206Z,125.65
2023-02-06T05:33:01.195Z,125.65
2023-02-06T05:34:01.199Z,125.65
2023-02-06T05:35:01.195Z,125.65
2023-02-06T05:36:01.194Z,125.65
2023-02-06T05:37:01.198Z,125.65
2023-02-06T05:38:01.197Z,125.65
2023-02-06T05:39:01.200Z,125.65
2023-02-06T05:40:01.256Z,125.65
2023-02-06T05:41:01.194Z,125.65
2023-02-06T05:42:01.193Z,125.65
2023-02-06T05:43:01.208Z,125.65
2023-02-06T05:44:01.227Z,125.65
2023-02-06T05:45:01.196Z,125.65
2023-02-06T05:46:01.244Z,125.65
2023-02-06T05:47:01.220Z,125.65
2023-02-06T05:48:01.192Z,125.65
2023-02-06T05:49:01.200Z,125.65
2023-02-06T05:50:01.197Z,125.65
2023-02-06T05:51:01.210Z,125.65
2023-02-06T05:52:01.209Z,125.65
2023-02-06T05:53:01.195Z,125.65
2023-02-06T05:54:01.202Z,125.65
2023-02-06T05:55:01.193Z,125.65
2023-02-06T05:56:01.231Z,125.65
2023-02-06T05:57:01.196Z,125.65
2023-02-06T05:58:01.203Z,125.65
2023-02-06T05:59:01.211Z,125.65
2023-02-06T06:00:01.204Z,125.65
2023-02-06T06:01:01.213Z,125.65
2023-02-06T06:02:01.216Z,125.65
2023-02-06T06:03:01.202Z,125.65
2023-02-06T06:04:01.248Z,125.65
2023-02-06T06:05:01.338Z,125.65
2023-02-06T06:06:01.223Z,125.65
2023-02-06T06:07:01.218Z,125.65
2023-02-06T06:08:01.221Z,125.65
2023-02-06T06:09:01.212Z,125.65
2023-02-06T06:10:01.223Z,125.65
2023-02-06T06:11:02.133Z,125.65
2023-02-06T06:12:01.252Z,125.65
2023-02-06T06:13:01.223Z,125.65
2023-02-06T06:14:01.229Z,125.65
2023-02-06T06:15:01.209Z,125.65
2023-02-06T06:16:01.239Z,125.65
2023-02-06T06:17:01.224Z,125.65
2023-02-06T06:18:01.222Z,125.65
2023-02-06T06:19:01.212Z,125.65
2023-02-06T06:20:01.218Z,125.65
2023-02-06T06:21:01.218Z,125.65
2023-02-06T06:22:01.231Z,125.65
2023-02-06T06:23:01.209Z,125.65
2023-02-06T06:24:01.213Z,125.65
2023-02-06T06:25:01.225Z,125.65
2023-02-06T06:26:01.227Z,125.65
2023-02-06T06:27:01.221Z,125.65
2023-02-06T06:28:01.290Z,125.65
2023-02-06T06:29:01.216Z,125.65
2023-02-06T06:30:01.211Z,125.65
2023-02-06T06:31:01.289Z,125.65
2023-02-06T06:32:01.226Z,125.65
2023-02-06T06:33:01.233Z,125.65
2023-02-06T06:34:01.252Z,125.65
2023-02-06T06:35:01.230Z,125.65
2023-02-06T06:36:01.253Z,125.65
2023-02-06T06:37:01.217Z,125.65
2023-02-06T06:38:01.225Z,125.65
2023-02-06T06:39:01.227Z,125.65
2023-02-06T06:40:01.234Z,125.65
2023-02-06T06:41:01.231Z,125.65
2023-02-06T06:42:01.222Z,125.65
2023-02-06T06:43:01.240Z,125.65
2023-02-06T06:44:01.329Z,125.65
2023-02-06T06:45:01.232Z,125.65
2023-02-06T06:46:01.253Z,125.65
2023-02-06T06:47:01.219Z,125.65
2023-02-06T06:48:01.217Z,125.65
2023-02-06T06:49:01.527Z,125.65
2023-02-06T06:50:01.295Z,125.65
2023-02-06T06:51:01.229Z,125.65
2023-02-06T06:52:01.242Z,125.65
2023-02-06T06:53:01.247Z,125.65
2023-02-06T06:54:01.245Z,125.65
2023-02-06T06:55:01.240Z,125.65
2023-02-06T06:56:01.233Z,125.65
2023-02-06T06:57:01.221Z,125.65
2023-02-06T06:58:01.222Z,125.65
2023-02-06T06:59:01.222Z,125.65
2023-02-06T07:00:01.312Z,125.65
2023-02-06T07:01:01.374Z,125.65
2023-02-06T07:02:01.252Z,125.65
2023-02-06T07:03:01.271Z,125.65
2023-02-06T07:04:01.252Z,125.65
2023-02-06T07:05:01.227Z,125.65
2023-02-06T07:06:01.228Z,125.65
2023-02-06T07:07:01.295Z,125.65
2023-02-06T07:08:01.228Z,125.65
2023-02-06T07:09:01.239Z,125.65
2023-02-06T07:10:01.245Z,125.65
2023-02-06T07:11:01.238Z,125.65
2023-02-06T07:12:01.240Z,125.65
2023-02-06T07:13:01.232Z,125.65
2023-02-06T07:14:01.229Z,125.65
2023-02-06T07:15:01.242Z,125.65
2023-02-06T07:16:01.289Z,125.65
2023-02-06T07:17:01.229Z,125.65
2023-02-06T07:18:01.238Z,125.65
2023-02-06T07:19:01.234Z,125.65
2023-02-06T07:20:01.241Z,125.65
2023-02-06T07:21:01.236Z,125.65
2023-02-06T07:22:01.251Z,125.65
2023-02-06T07:23:01.257Z,125.65
2023-02-06T07:24:01.242Z,125.65
2023-02-06T07:25:01.243Z,125.65
2023-02-06T07:26:01.244Z,125.65
2023-02-06T07:27:01.241Z,125.65
2023-02-06T07:28:01.302Z,125.65
2023-02-06T07:29:01.258Z,125.65
2023-02-06T07:30:01.231Z,125.65
2023-02-06T07:31:01.329Z,125.65
2023-02-06T07:32:01.304Z,125.65
2023-02-06T07:33:01.236Z,125.65
2023-02-06T07:34:01.242Z,125.65
2023-02-06T07:35:01.260Z,125.65
2023-02-06T07:36:03.619Z,125.65
2023-02-06T07:37:01.287Z,125.65
2023-02-06T07:38:01.247Z,125.65
2023-02-06T07:39:01.239Z,125.65
2023-02-06T07:40:01.247Z,125.65
2023-02-06T07:41:01.239Z,125.65
2023-02-06T07:42:01.256Z,125.65
2023-02-06T07:43:01.241Z,125.65
2023-02-06T07:44:01.247Z,125.65
2023-02-06T07:45:01.250Z,125.65
2023-02-06T07:46:01.409Z,125.65
2023-02-06T07:47:01.249Z,125.65
2023-02-06T07:48:01.257Z,125.65
2023-02-06T07:49:01.277Z,125.65
2023-02-06T07:50:01.238Z,125.65
2023-02-06T07:51:01.256Z,125.65
2023-02-06T07:52:01.244Z,125.65
2023-02-06T07:53:01.251Z,125.65
2023-02-06T07:54:01.257Z,125.65
2023-02-06T07:55:01.259Z,125.65
2023-02-06T07:56:01.276Z,125.65
2023-02-06T07:57:01.248Z,125.65
2023-02-06T07:58:01.249Z,125.65
2023-02-06T07:59:01.241Z,125.65
2023-02-06T08:00:01.244Z,125.65
2023-02-06T08:01:01.322Z,125.65
2023-02-06T08:02:01.250Z,125.65
2023-02-06T08:03:01.262Z,125.65
2023-02-06T08:04:01.359Z,125.65
2023-02-06T08:05:01.241Z,125.65
2023-02-06T08:06:01.251Z,125.65
2023-02-06T08:07:01.252Z,125.65
2023-02-06T08:08:01.262Z,125.65
2023-02-06T08:09:01.253Z,125.65
2023-02-06T08:10:01.258Z,125.65
2023-02-06T08:11:01.263Z,125.65
2023-02-06T08:12:01.268Z,125.65
2023-02-06T08:13:01.240Z,125.65
2023-02-06T08:14:01.263Z,125.65
2023-02-06T08:15:01.260Z,125.65
2023-02-06T08:16:01.270Z,125.65
2023-02-06T08:17:01.263Z,125.65
2023-02-06T08:18:01.245Z,125.65
2023-02-06T08:19:01.255Z,125.65
2023-02-06T08:20:01.320Z,125.65
2023-02-06T08:21:01.251Z,125.65
2023-02-06T08:22:01.243Z,125.65
2023-02-06T08:23:01.257Z,282.35
2023-02-06T08:24:01.255Z,292.24
2023-02-06T08:25:01.272Z,296.47
2023-02-06T08:26:01.251Z,331.76
2023-02-06T08:27:01.275Z,296.47
2023-02-06T08:28:01.298Z,312
2023-02-06T08:29:01.270Z,261.18
2023-02-06T08:30:01.250Z,312
2023-02-06T08:31:01.445Z,289.41
2023-02-06T08:32:01.273Z,289.41
2023-02-06T08:33:01.287Z,289.41
2023-02-06T08:34:01.254Z,279.53
2023-02-06T08:35:01.253Z,288
2023-02-06T08:36:01.293Z,265.41
2023-02-06T08:37:01.256Z,265.41
2023-02-06T08:38:01.256Z,249.88
2023-02-06T08:39:01.264Z,218.82
2023-02-06T08:40:01.263Z,207.53
2023-02-06T08:41:01.262Z,224.47
2023-02-06T08:42:01.270Z,224.47
2023-02-06T08:43:01.257Z,224.47
2023-02-06T08:44:01.270Z,224.47
2023-02-06T08:45:01.263Z,224.47
2023-02-06T08:46:01.382Z,224.47
2023-02-06T08:47:09.499Z,224.47
2023-02-06T08:48:01.273Z,224.47
2023-02-06T08:49:01.260Z,224.47
2023-02-06T08:50:03.308Z,224.47
2023-02-06T08:51:01.254Z,224.47
2023-02-06T08:52:01.309Z,224.47
2023-02-06T08:53:01.291Z,224.47
2023-02-06T08:54:01.271Z,224.47
2023-02-06T08:55:01.261Z,224.47
2023-02-06T08:56:01.261Z,224.47
2023-02-06T08:57:01.271Z,224.47
2023-02-06T08:58:01.269Z,224.47
2023-02-06T08:59:01.256Z,224.47
2023-02-06T09:00:01.284Z,224.47
2023-02-06T09:01:01.263Z,224.47
2023-02-06T09:02:01.269Z,224.47
2023-02-06T09:03:01.268Z,224.47
2023-02-06T09:04:01.265Z,224.47
2023-02-06T09:05:01.269Z,224.47
2023-02-06T09:06:09.295Z,224.47
2023-02-06T09:07:01.276Z,224.47
2023-02-06T09:08:01.307Z,224.47
2023-02-06T09:09:01.257Z,224.47
2023-02-06T09:10:01.279Z,224.47
2023-02-06T09:11:01.275Z,224.47
2023-02-06T09:12:01.287Z,224.47
2023-02-06T09:13:01.278Z,224.47
2023-02-06T09:14:01.272Z,224.47
2023-02-06T09:15:01.268Z,224.47
2023-02-06T09:16:01.297Z,224.47
2023-02-06T09:17:01.273Z,224.47
2023-02-06T09:18:01.265Z,224.47
2023-02-06T09:19:01.397Z,224.47
2023-02-06T09:20:01.288Z,224.47
2023-02-06T09:21:01.270Z,224.47
2023-02-06T09:22:01.261Z,224.47
2023-02-06T09:23:01.264Z,224.47
2023-02-06T09:24:01.403Z,224.47
2023-02-06T09:25:01.282Z,224.47
2023-02-06T09:26:01.275Z,224.47
2023-02-06T09:27:01.365Z,224.47
2023-02-06T09:28:01.293Z,224.47
2023-02-06T09:29:01.264Z,224.47
2023-02-06T09:30:01.278Z,224.47
2023-02-06T09:31:01.354Z,224.47
2023-02-06T09:32:01.270Z,224.47
2023-02-06T09:33:01.272Z,224.47
2023-02-06T09:34:01.280Z,224.47
2023-02-06T09:35:01.275Z,224.47
2023-02-06T09:36:01.268Z,224.47
2023-02-06T09:37:01.273Z,224.47
2023-02-06T09:38:01.262Z,224.47
2023-02-06T09:39:01.272Z,224.47
2023-02-06T09:40:01.320Z,224.47
2023-02-06T09:41:01.274Z,224.47
2023-02-06T09:42:01.276Z,224.47
2023-02-06T09:43:01.269Z,224.47
2023-02-06T09:44:01.278Z,224.47
2023-02-06T09:45:01.285Z,224.47
2023-02-06T09:46:01.283Z,224.47
2023-02-06T09:47:01.286Z,224.47
2023-02-06T09:48:01.279Z,224.47
2023-02-06T09:49:01.285Z,224.47
2023-02-06T09:50:01.283Z,224.47
2023-02-06T09:51:01.332Z,224.47
2023-02-06T09:52:01.282Z,166.59
2023-02-06T09:53:01.306Z,155.29
2023-02-06T09:54:01.273Z,155.29
2023-02-06T09:55:01.282Z,155.29
2023-02-06T09:56:01.324Z,155.29
2023-02-06T09:57:01.279Z,155.29
2023-02-06T09:58:01.285Z,155.29
2023-02-06T09:59:01.287Z,155.29
2023-02-06T10:00:01.278Z,155.29
2023-02-06T10:01:01.295Z,155.29
2023-02-06T10:02:01.284Z,155.29
2023-02-06T10:03:01.286Z,155.29
2023-02-06T10:04:01.323Z,155.29
2023-02-06T10:05:01.284Z,155.29
2023-02-06T10:06:01.278Z,155.29
2023-02-06T10:07:01.288Z,155.29
2023-02-06T10:08:01.293Z,155.29
2023-02-06T10:09:01.283Z,155.29
2023-02-06T10:10:01.275Z,155.29
2023-02-06T10:11:01.287Z,155.29
2023-02-06T10:12:01.385Z,155.29
2023-02-06T10:13:01.280Z,155.29
2023-02-06T10:14:01.294Z,155.29
2023-02-06T10:15:01.290Z,155.29
2023-02-06T10:16:01.392Z,155.29
2023-02-06T10:17:01.301Z,155.29
2023-02-06T10:18:01.286Z,155.29
2023-02-06T10:19:01.287Z,155.29
2023-02-06T10:20:01.301Z,155.29
2023-02-06T10:21:01.288Z,155.29
2023-02-06T10:22:01.291Z,152.47
2023-02-06T10:23:01.291Z,111.53
2023-02-06T10:24:01.285Z,111.53
2023-02-06T10:25:01.290Z,83.29
2023-02-06T10:26:01.288Z,76.24
2023-02-06T10:27:01.297Z,76.24
2023-02-06T10:28:01.365Z,76.24
2023-02-06T10:29:01.301Z,100.24
2023-02-06T10:30:01.298Z,100.24
2023-02-06T10:31:01.364Z,100.24
2023-02-06T10:32:01.315Z,100.24
2023-02-06T10:33:01.295Z,100.24
2023-02-06T10:34:01.305Z,100.24
2023-02-06T10:35:01.294Z,100.24
2023-02-06T10:36:01.292Z,100.24
2023-02-06T10:37:01.302Z,100.24
2023-02-06T10:38:01.304Z,100.24
2023-02-06T10:39:01.307Z,100.24
2023-02-06T10:40:01.302Z,100.24
2023-02-06T10:41:01.305Z,100.24
2023-02-06T10:42:01.297Z,100.24
2023-02-06T10:43:01.297Z,100.24
2023-02-06T10:44:01.337Z,100.24
2023-02-06T10:45:13.353Z,100.24
2023-02-06T10:46:01.325Z,100.24
2023-02-06T10:47:01.355Z,100.24
2023-02-06T10:48:01.308Z,100.24
2023-02-06T10:49:01.374Z,100.24
2023-02-06T10:50:01.321Z,100.24
2023-02-06T10:51:01.301Z,100.24
2023-02-06T10:52:01.298Z,100.24
2023-02-06T10:53:01.297Z,100.24
2023-02-06T10:54:01.319Z,100.24
2023-02-06T10:55:01.308Z,100.24
2023-02-06T10:56:01.301Z,100.24
2023-02-06T10:57:01.318Z,100.24
2023-02-06T10:58:01.311Z,100.24
2023-02-06T10:59:01.303Z,100.24
2023-02-06T11:00:01.341Z,100.24
2023-02-06T11:01:01.386Z,100.24
2023-02-06T11:02:01.353Z,100.24
2023-02-06T11:03:07.357Z,100.24
2023-02-06T11:04:01.306Z,100.24
2023-02-06T11:05:01.306Z,100.24
2023-02-06T11:06:01.297Z,100.24
2023-02-06T11:07:01.310Z,100.24
2023-02-06T11:08:01.311Z,100.24
2023-02-06T11:09:01.307Z,100.24
2023-02-06T11:10:01.319Z,100.24
2023-02-06T11:11:01.297Z,100.24
2023-02-06T11:12:01.309Z,100.24
2023-02-06T11:13:01.311Z,100.24
2023-02-06T11:14:01.303Z,100.24
2023-02-06T11:15:01.319Z,100.24
2023-02-06T11:16:01.401Z,100.24
2023-02-06T11:17:01.319Z,100.24
2023-02-06T11:18:01.309Z,100.24
2023-02-06T11:19:01.322Z,100.24
2023-02-06T11:20:01.319Z,100.24
2023-02-06T11:21:01.307Z,100.24
2023-02-06T11:22:01.317Z,100.24
2023-02-06T11:23:01.314Z,100.24
2023-02-06T11:24:01.309Z,100.24
2023-02-06T11:25:01.326Z,100.24
2023-02-06T11:26:01.303Z,100.24
2023-02-06T11:27:01.320Z,100.24
2023-02-06T11:28:01.367Z,100.24
2023-02-06T11:29:01.319Z,100.24
2023-02-06T11:30:01.312Z,100.24
2023-02-06T11:31:01.337Z,100.24
2023-02-06T11:32:01.351Z,100.24
2023-02-06T11:33:04.503Z,100.24
2023-02-06T11:34:01.334Z,100.24
2023-02-06T11:35:01.315Z,100.24
2023-02-06T11:36:01.317Z,100.24
2023-02-06T11:37:01.333Z,100.24
2023-02-06T11:38:01.320Z,100.24
2023-02-06T11:39:01.320Z,100.24
2023-02-06T11:40:01.315Z,100.24
2023-02-06T11:41:01.341Z,100.24
2023-02-06T11:42:01.325Z,100.24
2023-02-06T11:43:01.320Z,100.24
2023-02-06T11:44:01.324Z,100.24
2023-02-06T11:45:01.316Z,100.24
2023-02-06T11:46:01.319Z,100.24
2023-02-06T11:47:01.317Z,100.24
2023-02-06T11:48:01.328Z,100.24
2023-02-06T11:49:01.326Z,100.24
2023-02-06T11:50:01.315Z,100.24
2023-02-06T11:51:01.325Z,100.24
2023-02-06T11:52:01.316Z,100.24
2023-02-06T11:53:01.338Z,100.24
2023-02-06T11:54:01.358Z,100.24
2023-02-06T11:55:01.312Z,100.24
2023-02-06T11:56:01.316Z,100.24
2023-02-06T11:57:01.326Z,100.24
2023-02-06T11:58:01.322Z,100.24
2023-02-06T11:59:01.314Z,100.24
2023-02-06T12:00:01.336Z,100.24
2023-02-06T12:01:01.335Z,100.24
2023-02-06T12:02:01.387Z,100.24
2023-02-06T12:03:01.315Z,100.24
2023-02-06T12:04:01.425Z,100.24
2023-02-06T12:05:01.319Z,100.24
2023-02-06T12:06:02.998Z,100.24
2023-02-06T12:07:01.334Z,238.59
2023-02-06T12:08:01.315Z,238.59
2023-02-06T12:09:01.339Z,238.59
2023-02-06T12:10:01.319Z,238.59
2023-02-06T12:11:01.336Z,238.59
2023-02-06T12:12:01.342Z,238.59
2023-02-06T12:13:01.319Z,238.59
2023-02-06T12:14:01.314Z,238.59
2023-02-06T12:15:07.369Z,238.59
2023-02-06T12:16:01.326Z,238.59
2023-02-06T12:17:01.332Z,238.59
2023-02-06T12:18:01.317Z,238.59
2023-02-06T12:19:01.332Z,238.59
2023-02-06T12:20:01.388Z,238.59
2023-02-06T12:21:01.330Z,238.59
2023-02-06T12:22:01.356Z,238.59
2023-02-06T12:23:01.323Z,238.59
2023-02-06T12:24:01.341Z,238.59
2023-02-06T12:25:01.330Z,238.59
2023-02-06T12:26:01.344Z,238.59
2023-02-06T12:27:01.332Z,238.59
2023-02-06T12:28:01.349Z,238.59
2023-02-06T12:29:01.328Z,238.59
2023-02-06T12:30:01.326Z,238.59
2023-02-06T12:31:01.438Z,238.59
2023-02-06T12:32:01.469Z,238.59
2023-02-06T12:33:01.330Z,238.59